Windermere, Canada
Current Conditions -  °F | °C
As of 10:00 PM on Friday 24 Oct 2014 (Local Time) from CYXC Reporting Station
Overcast Overcast  
Wind Chill: 40°   Ceiling: 16000
Heat Index: 43°   Visibility: 25mi
Dew Point: 32°   Wind: 5mph
Humidity: 66%   Direction: 250°WSW
Pressure: 30.07"   Gusts: NA
Location:  50.47°N, 115.97°W
Report Text: CYXC 250400Z 25004KT 240V300 25SM FEW050 OVC160 06/M00 A3007 RMK SC1AS7 SLP202
Loading
Personal Weather Stations






























Interactive Weather Map
Tropical Storm Tracking
New forecast layout! Learn more

10-Day Weather Forecast

Advertisements
Track Severe Weather on mobile